Time;durP1;ratioP1;P1;durP2;ratioP2;P2;SDS_P1;SDS_P2;PMS_P1;PMS_P2;Temp;Humidity;BMP_temperature;BMP_pressure;BME280_temperature;BME280_humidity;BME280_pressure;Samples;Min_cycle;Max_cycle;Signal;HPM_P1;HPM_P2
2022/11/14 00:00:26;;;;;;;60.83;16.15;;;;;;;10.31;81.62;99892.28;4967218;28;20063;-54
2022/11/14 00:02:53;;;;;;;46.58;15.25;;;;;;;10.31;82.04;99900.03;4963576;28;20142;-54
2022/11/14 00:05:21;;;;;;;39.28;15.38;;;;;;;10.28;81.93;99894.03;4964866;28;20062;-50
2022/11/14 00:07:47;;;;;;;52.40;13.85;;;;;;;10.27;82.17;99886.25;4965599;28;20494;-56
2022/11/14 00:10:14;;;;;;;50.58;14.88;;;;;;;10.22;82.32;99883.69;4962833;28;20062;-52
2022/11/14 00:12:41;;;;;;;87.75;16.15;;;;;;;10.22;82.11;99878.50;4964675;28;20129;-52
2022/11/14 00:15:09;;;;;;;64.97;16.23;;;;;;;10.19;82.21;99870.75;4965758;28;20545;-58
2022/11/14 00:17:36;;;;;;;35.58;14.68;;;;;;;10.19;81.89;99862.97;4964552;28;20122;-54
2022/11/14 00:20:04;;;;;;;41.47;16.85;;;;;;;10.17;82.53;99859.56;4966701;28;20051;-55
2022/11/14 00:22:31;;;;;;;33.75;14.55;;;;;;;10.15;81.91;99862.16;4964602;28;20046;-55
2022/11/14 00:24:58;;;;;;;39.53;16.23;;;;;;;10.11;82.02;99855.25;4963682;28;20044;-54
2022/11/14 00:27:25;;;;;;;44.28;17.77;;;;;;;10.08;81.97;99850.09;4964841;28;20051;-54
2022/11/14 00:29:52;;;;;;;41.40;14.75;;;;;;;10.09;82.04;99845.75;4964848;28;20211;-57
2022/11/14 00:32:19;;;;;;;74.78;17.08;;;;;;;10.09;82.26;99844.03;4964938;28;20054;-50
2022/11/14 00:34:45;;;;;;;42.88;13.70;;;;;;;10.09;82.41;99844.03;4961677;28;20685;-53
2022/11/14 00:37:12;;;;;;;42.20;16.98;;;;;;;10.12;81.92;99845.75;4963327;28;20169;-53
2022/11/14 00:39:38;;;;;;;42.28;16.67;;;;;;;10.15;82.39;99840.56;4963457;28;20127;-56
2022/11/14 00:42:05;;;;;;;51.42;15.82;;;;;;;10.19;81.82;99836.22;4965914;28;20142;-54
2022/11/14 00:44:32;;;;;;;101.70;14.65;;;;;;;10.18;82.29;99840.56;4964166;28;20079;-56
2022/11/14 00:46:58;;;;;;;126.60;14.43;;;;;;;10.13;81.88;99831.94;4965771;28;20451;-57
2022/11/14 00:49:25;;;;;;;158.38;16.83;;;;;;;10.08;82.50;99831.09;4963373;28;20105;-60
2022/11/14 00:51:51;;;;;;;141.10;16.80;;;;;;;10.03;82.28;99832.00;4963051;28;20567;-52
2022/11/14 00:54:18;;;;;;;169.10;19.25;;;;;;;10.05;82.26;99833.72;4965140;28;20050;-52
2022/11/14 00:56:44;;;;;;;171.10;18.27;;;;;;;10.05;82.03;99841.47;4963251;28;20275;-52
2022/11/14 00:59:11;;;;;;;136.15;16.90;;;;;;;10.07;82.37;99843.22;4965930;28;20129;-59
2022/11/14 01:01:37;;;;;;;135.63;16.95;;;;;;;10.12;82.12;99835.41;4962289;28;20076;-55
2022/11/14 01:04:04;;;;;;;66.40;14.55;;;;;;;10.13;82.19;99832.81;4964203;28;20039;-55
2022/11/14 01:06:31;;;;;;;103.95;15.40;;;;;;;10.15;81.82;99836.28;4968841;28;20158;-55
2022/11/14 01:08:57;;;;;;;96.88;14.77;;;;;;;10.13;82.02;99837.13;4962263;28;20129;-55
2022/11/14 01:11:24;;;;;;;106.35;15.45;;;;;;;10.12;81.46;99832.81;4965123;28;20075;-55
2022/11/14 01:13:50;;;;;;;138.20;12.77;;;;;;;10.09;81.96;99830.22;4960066;28;20962;-52
2022/11/14 01:16:18;;;;;;;84.50;14.32;;;;;;;10.05;81.83;99833.72;4963280;28;20047;-55
2022/11/14 01:18:45;;;;;;;163.82;15.88;;;;;;;9.98;81.40;99823.41;4962859;28;20051;-54
2022/11/14 01:21:13;;;;;;;126.18;15.60;;;;;;;9.98;81.70;99818.22;4959009;28;20042;-56
2022/11/14 01:23:39;;;;;;;73.63;14.07;;;;;;;9.93;82.39;99819.94;4958567;28;20071;-53
2022/11/14 01:26:09;;;;;;;196.68;15.95;;;;;;;9.89;81.67;99811.34;4966008;28;20125;-55
2022/11/14 01:28:37;;;;;;;200.25;17.00;;;;;;;9.82;82.58;99801.03;4959760;28;20071;-55
2022/11/14 01:31:10;;;;;;;178.38;16.13;;;;;;;9.82;81.65;99801.03;4964960;28;20039;-52
2022/11/14 01:33:37;;;;;;;189.80;16.65;;;;;;;9.80;82.33;99801.06;4961807;28;20158;-54
2022/11/14 01:36:05;;;;;;;142.77;16.08;;;;;;;9.79;82.73;99806.22;4961141;28;20134;-57
2022/11/14 01:38:32;;;;;;;129.30;14.95;;;;;;;9.74;82.14;99804.50;4960049;28;20133;-51
2022/11/14 01:40:59;;;;;;;161.88;16.20;;;;;;;9.72;82.60;99806.22;4964835;28;20138;-55
2022/11/14 01:49:07;;;;;;;108.45;14.30;;;;;;;9.69;82.00;99788.13;5042625;27;20415;-54
2022/11/14 01:54:31;;;;;;;84.35;14.38;;;;;;;9.72;82.68;99788.13;5042941;27;20418;-51
2022/11/14 01:57:00;;;;;;;130.05;15.55;;;;;;;9.80;82.41;99782.06;5034724;28;20146;-57
2022/11/14 01:59:33;;;;;;;103.43;14.75;;;;;;;9.80;82.23;99787.25;5033942;28;20060;-58
2022/11/14 02:02:06;;;;;;;100.65;13.50;;;;;;;9.80;81.93;99777.78;5034974;28;20132;-56
2022/11/14 02:04:36;;;;;;;49.83;13.52;;;;;;;9.82;82.20;99780.31;5033581;28;20065;-54
2022/11/14 02:07:04;;;;;;;66.93;12.88;;;;;;;9.81;82.31;99773.44;5035974;28;20464;-53
2022/11/14 02:09:36;;;;;;;144.52;16.52;;;;;;;9.81;82.04;99763.97;5039496;28;20574;-55
2022/11/14 02:12:11;;;;;;;112.43;15.15;;;;;;;9.82;82.29;99769.97;5071220;28;20045;-52
2022/11/14 02:14:39;;;;;;;139.48;15.80;;;;;;;9.85;82.79;99767.38;5033003;28;20049;-53
2022/11/14 02:17:05;;;;;;;99.47;12.10;;;;;;;9.86;82.60;99766.53;5037504;28;20678;-56
2022/11/14 02:22:41;;;;;;;102.40;12.43;;;;;;;9.89;82.18;99758.75;5042170;28;20445;-58
2022/11/14 02:25:10;;;;;;;40.72;10.25;;;;;;;9.91;81.79;99754.44;5016067;28;20154;-55
2022/11/14 02:27:39;;;;;;;45.17;11.50;;;;;;;9.93;81.95;99757.00;5004065;28;20054;-55
2022/11/14 02:30:11;;;;;;;45.58;11.30;;;;;;;9.95;82.09;99755.25;5002519;28;20533;-53
2022/11/14 02:32:38;;;;;;;95.20;11.68;;;;;;;9.95;82.02;99745.78;5001541;28;20164;-57
2022/11/14 02:35:24;;;;;;;146.93;14.18;;;;;;;9.95;82.22;99734.56;5003626;28;20054;-55
2022/11/14 02:37:51;;;;;;;70.63;10.68;;;;;;;9.94;81.86;99727.69;5001477;28;20133;-58
2022/11/14 02:40:18;;;;;;;86.05;11.57;;;;;;;9.94;82.14;99723.38;5002858;28;20046;-52
2022/11/14 02:42:44;;;;;;;116.22;12.02;;;;;;;9.93;81.57;99726.81;5004025;28;20046;-56
2022/11/14 02:45:12;;;;;;;86.45;11.07;;;;;;;9.92;81.87;99725.09;5001033;28;20473;-53
2022/11/14 02:47:38;;;;;;;149.82;12.75;;;;;;;9.89;81.84;99735.47;5004019;28;20659;-53
2022/11/14 02:50:05;;;;;;;139.05;12.30;;;;;;;9.85;81.96;99732.03;5002372;28;20157;-54
2022/11/14 02:52:32;;;;;;;50.40;10.20;;;;;;;9.81;81.95;99729.47;5001806;28;20193;-57
2022/11/14 02:54:58;;;;;;;72.25;11.07;;;;;;;9.71;81.76;99729.53;4999950;28;20137;-55
2022/11/14 02:57:25;;;;;;;124.05;12.45;;;;;;;9.63;81.99;99721.78;5002978;28;20081;-55
2022/11/14 02:59:51;;;;;;;78.53;11.50;;;;;;;9.63;82.49;99708.84;5001772;28;20136;-58
2022/11/14 03:02:18;;;;;;;62.22;10.23;;;;;;;9.62;82.70;99698.50;4995755;28;20073;-52
2022/11/14 03:04:44;;;;;;;37.55;10.60;;;;;;;9.62;81.83;99699.38;5003632;28;20118;-52
2022/11/14 03:07:11;;;;;;;68.85;10.75;;;;;;;9.66;82.17;99700.22;4998945;28;20050;-55
2022/11/14 03:09:38;;;;;;;75.28;11.35;;;;;;;9.68;82.92;99698.50;5001305;28;20085;-52
2022/11/14 03:12:05;;;;;;;126.15;11.50;;;;;;;9.61;82.20;99699.38;4998623;28;20108;-54
2022/11/14 03:14:31;;;;;;;143.50;12.15;;;;;;;9.60;81.79;99698.50;4996950;28;20042;-54
2022/11/14 03:16:58;;;;;;;165.25;14.93;;;;;;;9.60;82.45;99702.84;5001628;28;20470;-54
2022/11/14 03:19:24;;;;;;;141.82;13.90;;;;;;;9.58;82.52;99689.06;4999875;28;20050;-55
2022/11/14 03:21:51;;;;;;;134.38;13.05;;;;;;;9.58;82.51;99692.50;5000461;28;20042;-54
2022/11/14 03:24:18;;;;;;;105.20;11.63;;;;;;;9.60;82.24;99692.50;4998838;28;20053;-52
2022/11/14 03:26:44;;;;;;;108.28;12.75;;;;;;;9.59;82.08;99698.56;4999264;28;20133;-52
2022/11/14 03:29:11;;;;;;;117.38;12.60;;;;;;;9.59;82.47;99698.56;4999797;28;20125;-57
2022/11/14 03:31:37;;;;;;;144.63;12.65;;;;;;;9.56;82.31;99701.16;5001411;28;20108;-55
2022/11/14 03:34:04;;;;;;;154.65;13.10;;;;;;;9.54;82.23;99708.03;4988932;28;20055;-52
2022/11/14 03:36:30;;;;;;;169.07;14.00;;;;;;;9.56;82.39;99721.81;4987452;28;20054;-57
2022/11/14 03:38:57;;;;;;;86.45;11.32;;;;;;;9.47;82.55;99718.41;4984522;28;20509;-58
2022/11/14 03:41:24;;;;;;;82.35;11.45;;;;;;;9.43;82.79;99714.13;4985941;28;20514;-55
2022/11/14 03:43:50;;;;;;;106.07;10.85;;;;;;;9.38;82.75;99708.09;4982620;28;21049;-53
2022/11/14 03:46:17;;;;;;;173.13;13.80;;;;;;;9.33;83.13;99704.66;4985665;28;20189;-53
2022/11/14 03:48:43;;;;;;;91.75;11.80;;;;;;;9.32;82.89;99702.97;4987157;28;20133;-49
2022/11/14 03:51:10;;;;;;;108.22;12.90;;;;;;;9.34;82.56;99703.78;4987066;28;20137;-57
2022/11/14 03:53:37;;;;;;;93.82;10.90;;;;;;;9.32;83.19;99697.78;4984215;28;20124;-52
2022/11/14 03:56:04;;;;;;;129.73;12.93;;;;;;;9.28;83.07;99696.09;4989095;28;20129;-52
2022/11/14 03:58:30;;;;;;;101.50;11.05;;;;;;;9.24;83.32;99690.91;4985941;28;20053;-57
2022/11/14 04:00:58;;;;;;;90.13;11.13;;;;;;;9.21;83.48;99687.47;4982648;28;20587;-55
2022/11/14 04:03:25;;;;;;;163.00;14.05;;;;;;;9.23;83.42;99693.50;4990007;28;20408;-54
2022/11/14 04:05:51;;;;;;;72.10;11.55;;;;;;;9.22;83.33;99690.03;4983030;28;20061;-58
2022/11/14 04:08:18;;;;;;;144.30;11.98;;;;;;;9.13;84.05;99690.09;4986628;28;20116;-54
2022/11/14 04:10:47;;;;;;;84.40;13.98;;;;;;;9.18;83.93;99690.91;4988289;28;20409;-55
2022/11/14 04:13:14;;;;;;;104.70;13.07;;;;;;;9.17;84.18;99689.22;4987372;28;20159;-56
2022/11/14 04:15:41;;;;;;;97.07;12.20;;;;;;;9.17;84.06;99684.03;4986802;28;20611;-56
2022/11/14 04:18:07;;;;;;;102.90;13.13;;;;;;;9.19;83.45;99687.47;4990195;28;20088;-58
2022/11/14 04:20:34;;;;;;;133.63;13.82;;;;;;;9.18;84.08;99683.16;4987149;28;20050;-58
2022/11/14 04:23:00;;;;;;;123.93;13.13;;;;;;;9.11;83.96;99668.53;4985471;28;20050;-54
2022/11/14 04:25:27;;;;;;;85.35;12.88;;;;;;;9.10;84.15;99672.00;4987350;28;20100;-53
2022/11/14 04:27:54;;;;;;;80.43;11.10;;;;;;;9.02;84.51;99678.91;4989701;28;20137;-55
2022/11/14 04:30:20;;;;;;;120.93;14.52;;;;;;;9.10;84.56;99674.59;4988799;28;20129;-50
2022/11/14 04:32:48;;;;;;;136.20;14.70;;;;;;;9.17;84.27;99673.72;4987116;28;20157;-57
2022/11/14 04:35:14;;;;;;;133.70;13.88;;;;;;;9.14;84.32;99678.88;4990795;28;20587;-53
2022/11/14 04:37:41;;;;;;;137.77;15.02;;;;;;;9.13;84.55;99682.34;4988726;28;20046;-54
2022/11/14 04:40:08;;;;;;;139.00;13.02;;;;;;;9.11;84.83;99679.75;4989884;28;20506;-56
2022/11/14 04:42:35;;;;;;;108.68;12.20;;;;;;;9.04;85.35;99682.34;4987704;28;20432;-56
2022/11/14 04:45:01;;;;;;;123.45;13.90;;;;;;;9.07;85.04;99672.00;4987501;28;20050;-56
2022/11/14 04:47:28;;;;;;;112.40;13.38;;;;;;;9.09;84.88;99650.47;4986605;28;20096;-55
2022/11/14 04:49:55;;;;;;;110.63;13.95;;;;;;;9.13;84.52;99643.56;4986530;28;20046;-53
2022/11/14 04:52:21;;;;;;;131.85;14.68;;;;;;;9.18;84.94;99640.97;4985978;28;20585;-56
2022/11/14 04:54:48;;;;;;;120.97;12.82;;;;;;;9.15;84.90;99634.06;4986864;28;20129;-57
2022/11/14 04:57:16;;;;;;;145.15;15.93;;;;;;;9.19;84.64;99628.03;4986066;28;20689;-54
2022/11/14 04:59:43;;;;;;;173.52;14.15;;;;;;;9.22;84.64;99630.59;4986639;28;20058;-55
2022/11/14 05:02:10;;;;;;;168.30;15.88;;;;;;;9.28;84.29;99618.56;4987520;28;20069;-52
2022/11/14 05:04:37;;;;;;;147.38;15.57;;;;;;;9.33;84.80;99606.44;4986627;28;20057;-51
2022/11/14 05:07:03;;;;;;;98.30;14.23;;;;;;;9.39;84.62;99598.66;4988646;28;20108;-55
2022/11/14 05:09:30;;;;;;;106.25;12.73;;;;;;;9.43;84.33;99602.09;4987967;28;20050;-55
2022/11/14 05:11:56;;;;;;;117.60;14.25;;;;;;;9.45;83.92;99595.19;4984060;28;20070;-54
2022/11/14 05:14:23;;;;;;;46.78;11.88;;;;;;;9.49;84.00;99595.16;4985314;28;20177;-55
2022/11/14 05:16:50;;;;;;;46.58;11.60;;;;;;;9.55;83.79;99591.69;4987843;28;20129;-58
2022/11/14 05:19:16;;;;;;;39.85;11.05;;;;;;;9.59;83.51;99587.38;4988386;28;20465;-56
2022/11/14 05:21:43;;;;;;;49.22;13.13;;;;;;;9.63;84.03;99574.38;4985994;28;20194;-58
2022/11/14 05:24:09;;;;;;;98.03;13.80;;;;;;;9.67;83.68;99595.06;4987205;28;20125;-55
2022/11/14 05:26:36;;;;;;;69.35;12.57;;;;;;;9.68;83.55;99602.81;4985240;28;20057;-53
2022/11/14 05:29:03;;;;;;;91.03;12.75;;;;;;;9.67;83.62;99608.88;4985763;28;20137;-53
2022/11/14 05:31:29;;;;;;;135.27;13.35;;;;;;;9.60;83.22;99610.59;4983429;28;20060;-58
2022/11/14 05:33:56;;;;;;;130.73;12.65;;;;;;;9.56;83.64;99614.06;4979720;28;20132;-54
2022/11/14 05:36:22;;;;;;;189.60;15.52;;;;;;;9.52;83.64;99612.38;4984977;28;20043;-51
2022/11/14 05:38:49;;;;;;;89.05;11.65;;;;;;;9.48;83.70;99616.72;4987169;28;20137;-50
2022/11/14 05:41:19;;;;;;;201.25;16.17;;;;;;;9.46;83.75;99613.28;4985240;28;20137;-55
2022/11/14 05:43:45;;;;;;;121.00;14.55;;;;;;;9.44;83.61;99609.84;4988211;28;20125;-50
2022/11/14 05:46:14;;;;;;;133.45;12.93;;;;;;;9.46;83.92;99612.44;4983970;28;20096;-51
2022/11/14 05:48:42;;;;;;;118.15;12.60;;;;;;;9.47;83.78;99608.97;4985347;28;20065;-54
2022/11/14 05:51:11;;;;;;;117.95;12.98;;;;;;;9.49;83.84;99608.09;4996032;28;20125;-49
2022/11/14 05:53:38;;;;;;;170.23;14.43;;;;;;;9.47;83.52;99609.84;4983948;28;20051;-53
2022/11/14 05:56:09;;;;;;;128.43;12.85;;;;;;;9.50;83.58;99612.38;4981810;28;20129;-48
2022/11/14 05:58:36;;;;;;;95.90;12.77;;;;;;;9.50;83.65;99611.53;4983682;28;20050;-53
2022/11/14 06:01:05;;;;;;;134.10;12.55;;;;;;;9.50;83.89;99601.19;4983929;28;20058;-53
2022/11/14 06:03:34;;;;;;;140.85;12.57;;;;;;;9.55;83.80;99603.78;4970620;28;20133;-57
2022/11/14 06:06:03;;;;;;;140.80;13.23;;;;;;;9.51;83.57;99601.19;4980914;28;20089;-58
2022/11/14 06:08:30;;;;;;;166.50;14.68;;;;;;;9.51;83.50;99585.69;4984366;28;20132;-53
2022/11/14 06:11:04;;;;;;;180.70;14.65;;;;;;;9.50;83.19;99589.13;4985914;28;20128;-57
2022/11/14 06:13:31;;;;;;;135.60;12.82;;;;;;;9.54;83.85;99583.94;4964698;28;20051;-57
2022/11/14 06:16:00;;;;;;;130.63;13.45;;;;;;;9.55;83.71;99585.66;4985472;28;20097;-56
2022/11/14 06:18:27;;;;;;;70.22;11.75;;;;;;;9.56;83.73;99580.47;4987233;28;20129;-54
2022/11/14 06:21:00;;;;;;;58.50;11.88;;;;;;;9.58;83.91;99564.94;4985287;28;20050;-50
2022/11/14 06:23:27;;;;;;;127.18;13.18;;;;;;;9.63;83.33;99574.38;4986823;28;20133;-52
2022/11/14 06:26:00;;;;;;;140.45;14.73;;;;;;;9.64;83.18;99581.31;4987227;28;20100;-52
2022/11/14 06:28:26;;;;;;;120.90;13.85;;;;;;;9.65;83.01;99587.31;4982338;28;20077;-56
2022/11/14 06:30:58;;;;;;;110.93;13.27;;;;;;;9.67;83.57;99590.75;4987030;28;20050;-54
2022/11/14 06:33:26;;;;;;;99.20;12.27;;;;;;;9.69;83.29;99595.94;4986137;28;20058;-52
2022/11/14 06:35:58;;;;;;;82.65;12.23;;;;;;;9.69;83.55;99599.34;4987228;28;20161;-52
2022/11/14 06:38:25;;;;;;;96.05;13.45;;;;;;;9.69;83.72;99595.94;4985931;28;20121;-56
2022/11/14 06:40:52;;;;;;;79.70;12.98;;;;;;;9.70;83.15;99603.69;4986060;28;20122;-57
2022/11/14 06:43:18;;;;;;;111.22;12.45;;;;;;;9.69;83.07;99608.84;4986482;28;20081;-56
2022/11/14 06:45:45;;;;;;;136.43;13.02;;;;;;;9.68;83.02;99610.56;4988322;28;20077;-52
2022/11/14 06:48:12;;;;;;;121.70;12.65;;;;;;;9.68;83.09;99608.00;4986101;28;20157;-51
2022/11/14 06:50:38;;;;;;;152.68;13.93;;;;;;;9.67;83.43;99605.41;4985090;28;20046;-53
2022/11/14 06:53:05;;;;;;;156.95;13.80;;;;;;;9.67;83.19;99595.94;4981288;28;20057;-55
2022/11/14 06:55:31;;;;;;;112.95;12.93;;;;;;;9.66;83.28;99607.13;4984803;28;20046;-51
2022/11/14 06:57:58;;;;;;;127.80;13.15;;;;;;;9.64;82.98;99616.63;4985048;28;20046;-59
2022/11/14 07:00:25;;;;;;;43.33;11.10;;;;;;;9.64;83.70;99612.34;4982073;28;20117;-57
2022/11/14 07:02:51;;;;;;;60.40;10.95;;;;;;;9.69;83.19;99621.78;4982926;28;20042;-56
2022/11/14 07:05:18;;;;;;;63.10;9.95;;;;;;;9.73;83.21;99613.13;4981751;28;20074;-53
2022/11/14 07:07:45;;;;;;;55.13;9.88;;;;;;;9.75;83.38;99601.03;4983721;28;20046;-58
2022/11/14 07:10:11;;;;;;;69.15;9.50;;;;;;;9.78;83.12;99598.44;4987823;28;20070;-56
2022/11/14 07:12:38;;;;;;;64.00;10.48;;;;;;;9.83;83.18;99601.00;4989575;28;20058;-59
2022/11/14 07:15:05;;;;;;;86.50;10.48;;;;;;;9.83;83.15;99595.84;4990013;28;20081;-49
2022/11/14 07:17:35;;;;;;;91.45;11.45;;;;;;;9.82;82.65;99589.78;4987262;28;20416;-55
2022/11/14 07:20:01;;;;;;;91.50;11.65;;;;;;;9.82;82.91;99588.91;4984463;28;20137;-54
2022/11/14 07:22:28;;;;;;;65.97;10.77;;;;;;;9.81;82.77;99588.06;4989241;28;20073;-54
2022/11/14 07:24:55;;;;;;;104.18;11.68;;;;;;;9.80;82.74;99590.69;4989667;28;20093;-52
2022/11/14 07:27:21;;;;;;;172.98;14.13;;;;;;;9.74;82.58;99581.22;4988871;28;20605;-55
2022/11/14 07:29:48;;;;;;;105.78;11.07;;;;;;;9.71;82.59;99576.06;4989261;28;20684;-56
2022/11/14 07:32:14;;;;;;;116.00;11.48;;;;;;;9.70;83.04;99577.81;4987162;28;20042;-55
2022/11/14 07:34:41;;;;;;;171.32;14.23;;;;;;;9.67;82.42;99577.84;4986605;28;20048;-56
2022/11/14 07:37:08;;;;;;;82.40;12.25;;;;;;;9.64;82.61;99565.78;4986736;28;20509;-56
2022/11/14 07:39:34;;;;;;;140.45;13.27;;;;;;;9.63;82.99;99558.03;4986858;28;20052;-57
2022/11/14 07:42:01;;;;;;;189.05;13.95;;;;;;;9.61;83.23;99564.94;4981597;28;20469;-48
2022/11/14 07:44:27;;;;;;;137.80;12.32;;;;;;;9.58;82.79;99564.94;4984865;28;20437;-53
2022/11/14 07:46:54;;;;;;;119.55;11.43;;;;;;;9.52;83.09;99566.72;4981573;28;20745;-53
2022/11/14 07:49:20;;;;;;;109.00;11.45;;;;;;;9.50;83.10;99563.25;4983983;28;20565;-55
2022/11/14 07:51:47;;;;;;;128.82;12.45;;;;;;;9.52;82.84;99566.72;4984554;28;20046;-50
2022/11/14 07:54:14;;;;;;;70.75;10.43;;;;;;;9.54;82.98;99569.28;4981559;28;20053;-58
2022/11/14 07:56:40;;;;;;;107.88;12.23;;;;;;;9.56;83.10;99566.69;4981335;28;20160;-58
2022/11/14 07:59:07;;;;;;;137.23;10.95;;;;;;;9.55;83.14;99565.00;4985175;28;20060;-58
2022/11/14 08:01:33;;;;;;;103.93;10.70;;;;;;;9.50;83.39;99560.69;4982034;28;20413;-57
2022/11/14 08:04:00;;;;;;;82.60;10.57;;;;;;;9.52;83.32;99563.25;4982113;28;20445;-54
2022/11/14 08:06:27;;;;;;;106.30;11.00;;;;;;;9.52;82.99;99556.38;4984206;28;20126;-54
2022/11/14 08:08:54;;;;;;;56.63;9.50;;;;;;;9.54;82.72;99548.59;4982203;28;20093;-58
2022/11/14 08:11:46;;;;;;;104.40;10.30;;;;;;;9.57;83.18;99560.66;4982489;28;20129;-56
2022/11/14 08:14:07;;;;;;;72.78;9.32;;;;;;;9.56;82.66;99561.53;4976903;28;20082;-53
2022/11/14 08:16:33;;;;;;;86.40;10.57;;;;;;;9.55;82.71;99559.81;4980998;28;20050;-52
2022/11/14 08:19:00;;;;;;;79.63;10.27;;;;;;;9.52;83.13;99551.19;4984946;28;20074;-52
2022/11/14 08:21:27;;;;;;;80.43;9.90;;;;;;;9.55;82.57;99544.31;4983203;28;20157;-59
2022/11/14 08:23:53;;;;;;;83.25;9.68;;;;;;;9.57;83.03;99542.56;4979514;28;20081;-53
2022/11/14 08:26:20;;;;;;;91.85;9.35;;;;;;;9.58;82.70;99544.25;4982173;28;20129;-51
2022/11/14 08:28:46;;;;;;;48.33;9.85;;;;;;;9.61;82.69;99528.72;4980358;28;20054;-52
2022/11/14 08:31:13;;;;;;;39.40;7.85;;;;;;;9.63;82.75;99527.84;4982729;28;20086;-59
2022/11/14 08:33:39;;;;;;;47.72;8.13;;;;;;;9.66;82.83;99521.78;4982354;28;20136;-54
2022/11/14 08:36:06;;;;;;;57.20;9.30;;;;;;;9.69;82.72;99516.59;4983203;28;20069;-53
2022/11/14 08:38:33;;;;;;;66.85;8.93;;;;;;;9.73;82.65;99515.69;4981718;28;20145;-56
2022/11/14 08:41:00;;;;;;;53.03;9.32;;;;;;;9.76;82.55;99514.81;4984631;28;20081;-53
2022/11/14 08:43:27;;;;;;;28.63;9.05;;;;;;;9.82;82.48;99516.50;4981798;28;20046;-49
2022/11/14 08:45:59;;;;;;;48.33;9.38;;;;;;;9.90;82.44;99519.91;4982158;28;20081;-53
2022/11/14 08:48:28;;;;;;;48.17;9.57;;;;;;;9.98;83.22;99518.09;4985171;28;20050;-54
2022/11/14 08:50:55;;;;;;;47.30;8.65;;;;;;;10.05;82.36;99528.38;4981718;28;20639;-54
2022/11/14 08:53:22;;;;;;;42.53;10.25;;;;;;;10.10;82.31;99526.63;4985166;28;20047;-54
2022/11/14 08:55:48;;;;;;;59.50;11.05;;;;;;;10.16;82.58;99526.56;4982853;28;20133;-51
2022/11/14 08:58:15;;;;;;;61.92;9.10;;;;;;;10.20;82.14;99510.13;4982539;28;20129;-57
2022/11/14 09:00:41;;;;;;;57.15;9.55;;;;;;;10.22;82.86;99510.97;4984664;28;20085;-53
2022/11/14 09:03:09;;;;;;;64.60;9.25;;;;;;;10.16;82.65;99508.44;4983508;28;20142;-52
2022/11/14 09:05:36;;;;;;;60.78;8.07;;;;;;;10.09;81.99;99517.13;4985667;28;20046;-58
2022/11/14 09:08:03;;;;;;;48.33;7.32;;;;;;;10.10;82.26;99521.44;4987422;28;20126;-51
2022/11/14 09:10:29;;;;;;;47.80;7.30;;;;;;;10.12;82.31;99519.69;4988373;28;20078;-57
2022/11/14 09:12:57;;;;;;;55.05;6.85;;;;;;;10.14;82.25;99517.97;4982771;28;20050;-56
2022/11/14 09:15:25;;;;;;;35.60;6.13;;;;;;;10.18;82.39;99513.59;4982806;28;20145;-53
2022/11/14 09:17:53;;;;;;;47.55;6.68;;;;;;;10.20;82.08;99517.88;4987421;28;20047;-51
2022/11/14 09:20:22;;;;;;;46.35;7.95;;;;;;;10.21;83.13;99519.63;4985299;28;20096;-53
2022/11/14 09:22:58;;;;;;;35.30;6.75;;;;;;;10.27;82.66;99519.53;4983501;28;20050;-54
2022/11/14 09:25:26;;;;;;;31.30;6.43;;;;;;;10.34;82.53;99515.16;4984560;28;20104;-51
2022/11/14 09:27:52;;;;;;;46.20;7.03;;;;;;;10.39;82.78;99507.34;4982152;28;20553;-52
2022/11/14 09:30:21;;;;;;;29.98;7.93;;;;;;;10.45;82.95;99517.69;4985440;28;20271;-52
2022/11/14 09:32:48;;;;;;;30.30;7.15;;;;;;;10.49;82.87;99508.13;4980281;28;20038;-53
2022/11/14 09:35:16;;;;;;;40.20;7.07;;;;;;;10.53;82.76;99515.00;4997130;28;21338;-54
2022/11/14 09:37:42;;;;;;;31.67;6.97;;;;;;;10.57;83.09;99515.84;4981305;28;20837;-54
2022/11/14 09:40:12;;;;;;;30.40;7.43;;;;;;;10.59;82.12;99514.06;4985028;28;20042;-54
2022/11/14 09:42:58;;;;;;;30.73;7.93;;;;;;;10.57;82.68;99508.06;4984127;28;20510;-51
2022/11/14 09:45:25;;;;;;;33.72;7.13;;;;;;;10.58;82.41;99502.00;4984920;28;20053;-53
2022/11/14 09:47:59;;;;;;;29.17;7.38;;;;;;;10.61;83.11;99501.97;4983315;28;20042;-50
2022/11/14 09:50:32;;;;;;;26.73;7.07;;;;;;;10.66;83.17;99498.47;4983867;28;20623;-53
2022/11/14 09:53:06;;;;;;;34.83;7.63;;;;;;;10.69;82.56;99492.38;4985840;28;20045;-55
2022/11/14 09:55:34;;;;;;;27.90;6.53;;;;;;;10.70;82.88;99498.44;4986393;28;20467;-53
2022/11/14 09:58:17;;;;;;;29.95;6.85;;;;;;;10.69;82.21;99489.78;4986685;28;20441;-54
2022/11/14 10:06:17;;;;;;;36.65;8.60;;;;;;;10.79;83.20;99491.41;5026042;27;20406;-57
2022/11/14 10:11:37;;;;;;;33.35;9.52;;;;;;;10.89;82.49;99489.53;5019017;27;20773;-53
2022/11/14 10:19:45;;;;;;;32.40;7.50;;;;;;;11.00;82.64;99484.22;5078625;27;20407;-48
2022/11/14 10:22:46;;;;;;;26.65;7.45;;;;;;;10.99;82.33;99490.28;5043305;28;20152;-55
2022/11/14 10:25:25;;;;;;;23.33;7.70;;;;;;;11.02;83.12;99472.06;5041096;28;20072;-50
2022/11/14 10:28:20;;;;;;;24.38;7.45;;;;;;;11.03;83.20;99479.00;5042645;28;20077;-52
2022/11/14 10:34:03;;;;;;;30.00;8.30;;;;;;;10.96;82.59;99451.44;5054809;28;21086;-58
2022/11/14 10:42:16;;;;;;;32.80;8.15;;;;;;;11.08;83.78;99457.34;5055126;28;20406;-55
2022/11/14 10:44:54;;;;;;;38.22;7.82;;;;;;;11.08;83.52;99455.56;5000242;28;20077;-56
2022/11/14 10:47:24;;;;;;;61.85;8.50;;;;;;;11.12;83.09;99456.41;4999255;28;20153;-53
2022/11/14 10:49:54;;;;;;;45.95;7.97;;;;;;;11.14;83.87;99462.41;4992258;28;20046;-52
2022/11/14 10:52:34;;;;;;;63.17;8.20;;;;;;;11.15;83.71;99451.19;4997301;28;20069;-54
2022/11/14 10:55:18;;;;;;;62.50;9.18;;;;;;;11.17;83.09;99445.09;4999296;28;20446;-54
2022/11/14 10:58:09;;;;;;;82.18;8.82;;;;;;;11.25;82.91;99432.00;4996417;28;20510;-52
2022/11/14 11:00:35;;;;;;;67.20;7.18;;;;;;;11.25;83.69;99437.19;4999876;28;20128;-48
2022/11/14 11:03:02;;;;;;;68.28;8.27;;;;;;;11.27;82.93;99435.44;5000272;28;20050;-48
2022/11/14 11:05:29;;;;;;;48.78;7.10;;;;;;;11.26;82.64;99438.06;4996846;28;20140;-54
2022/11/14 11:14:00;;;;;;;49.30;6.85;;;;;;;11.48;82.61;99432.53;4986111;28;20524;-56
2022/11/14 11:16:27;;;;;;;75.50;8.15;;;;;;;11.53;82.99;99426.41;4995010;28;20073;-54
2022/11/14 11:19:26;;;;;;;45.85;7.55;;;;;;;11.53;83.53;99421.22;4992100;28;20062;-58
2022/11/14 11:21:52;;;;;;;36.67;7.15;;;;;;;11.61;82.84;99420.19;4998969;28;20050;-56
2022/11/14 11:24:36;;;;;;;43.28;7.57;;;;;;;11.61;82.60;99415.00;4994999;28;20409;-48
2022/11/14 11:32:42;;;;;;;37.50;5.93;;;;;;;11.78;83.96;99405.19;5030374;27;20397;-54
2022/11/14 11:35:13;;;;;;;34.50;5.95;;;;;;;11.82;83.14;99412.03;5019823;28;20173;-54
2022/11/14 11:37:44;;;;;;;33.78;6.88;;;;;;;11.87;83.61;99406.78;5019717;28;20080;-54
2022/11/14 11:40:16;;;;;;;27.23;6.90;;;;;;;11.93;82.80;99398.03;5021232;28;20465;-50
2022/11/14 11:45:21;;;;;;;21.17;6.35;;;;;;;12.04;84.03;99397.81;5058948;28;20403;-51
2022/11/14 11:47:59;;;;;;;23.75;5.80;;;;;;;12.07;82.58;99405.59;5011613;28;20133;-51
2022/11/14 11:50:27;;;;;;;34.65;5.90;;;;;;;12.10;83.35;99399.47;5001745;28;20096;-54
2022/11/14 11:55:36;;;;;;;27.48;9.43;;;;;;;12.10;82.69;99394.28;5050065;27;20394;-50
2022/11/14 11:58:11;;;;;;;30.73;7.75;;;;;;;12.12;82.59;99398.56;5019325;28;21005;-48
2022/11/14 12:00:38;;;;;;;21.70;6.82;;;;;;;12.12;82.51;99408.09;5022522;28;20073;-55
2022/11/14 12:03:11;;;;;;;21.08;7.43;;;;;;;12.13;82.33;99407.19;5019839;28;20058;-50
2022/11/14 12:08:31;;;;;;;36.78;9.40;;;;;;;12.39;82.22;99396.28;5036159;27;20407;-51
2022/11/14 12:11:00;;;;;;;26.63;7.68;;;;;;;12.25;82.40;99399.16;5018408;28;20103;-56
2022/11/14 12:14:06;;;;;;;19.88;6.90;;;;;;;12.20;82.68;99401.00;5019621;28;20129;-54
2022/11/14 12:16:57;;;;;;;22.40;6.47;;;;;;;12.23;82.21;99395.75;5018395;28;20133;-51
2022/11/14 12:19:52;;;;;;;18.80;7.05;;;;;;;12.25;82.57;99398.28;5019539;28;20141;-54
2022/11/14 12:30:21;;;;;;;17.58;7.60;;;;;;;12.12;83.01;99367.41;5028971;28;20418;-53